sensor_id;sensor_type;location;lat;lon;timestamp;P1;durP1;ratioP1;P2;durP2;ratioP2
47113;SDS011;32867;51.556;6.832;2023-04-07T00:00:11;13.05;;;10.65;;
47113;SDS011;32867;51.556;6.832;2023-04-07T00:05:13;14.02;;;11.75;;
47113;SDS011;32867;51.556;6.832;2023-04-07T00:10:14;14.63;;;11.90;;
47113;SDS011;32867;51.556;6.832;2023-04-07T00:15:15;18.40;;;13.30;;
47113;SDS011;32867;51.556;6.832;2023-04-07T00:20:15;14.90;;;12.30;;
47113;SDS011;32867;51.556;6.832;2023-04-07T00:25:16;16.45;;;13.43;;
47113;SDS011;32867;51.556;6.832;2023-04-07T00:30:17;15.85;;;13.98;;
47113;SDS011;32867;51.556;6.832;2023-04-07T00:35:18;17.42;;;14.48;;
47113;SDS011;32867;51.556;6.832;2023-04-07T00:40:19;17.00;;;13.63;;
47113;SDS011;32867;51.556;6.832;2023-04-07T00:45:20;17.17;;;14.43;;
47113;SDS011;32867;51.556;6.832;2023-04-07T00:50:20;16.88;;;14.40;;
47113;SDS011;32867;51.556;6.832;2023-04-07T00:55:21;16.10;;;14.10;;
47113;SDS011;32867;51.556;6.832;2023-04-07T01:00:23;16.48;;;13.55;;
47113;SDS011;32867;51.556;6.832;2023-04-07T01:05:39;18.02;;;14.13;;
47113;SDS011;32867;51.556;6.832;2023-04-07T01:10:49;17.05;;;15.25;;
47113;SDS011;32867;51.556;6.832;2023-04-07T01:15:54;16.60;;;14.43;;
47113;SDS011;32867;51.556;6.832;2023-04-07T01:21:01;16.58;;;14.15;;
47113;SDS011;32867;51.556;6.832;2023-04-07T01:31:16;16.17;;;13.68;;
47113;SDS011;32867;51.556;6.832;2023-04-07T01:36:17;15.90;;;13.15;;
47113;SDS011;32867;51.556;6.832;2023-04-07T01:41:18;13.80;;;11.88;;
47113;SDS011;32867;51.556;6.832;2023-04-07T01:46:20;17.73;;;13.55;;
47113;SDS011;32867;51.556;6.832;2023-04-07T01:51:21;18.63;;;16.15;;
47113;SDS011;32867;51.556;6.832;2023-04-07T01:56:24;18.42;;;14.27;;
47113;SDS011;32867;51.556;6.832;2023-04-07T02:01:27;17.77;;;14.23;;
47113;SDS011;32867;51.556;6.832;2023-04-07T02:06:31;21.05;;;16.30;;
47113;SDS011;32867;51.556;6.832;2023-04-07T02:11:35;23.10;;;18.63;;
47113;SDS011;32867;51.556;6.832;2023-04-07T02:16:38;25.25;;;20.02;;
47113;SDS011;32867;51.556;6.832;2023-04-07T02:21:41;26.17;;;20.42;;
47113;SDS011;32867;51.556;6.832;2023-04-07T02:26:44;27.15;;;20.55;;
47113;SDS011;32867;51.556;6.832;2023-04-07T02:31:46;32.47;;;24.33;;
47113;SDS011;32867;51.556;6.832;2023-04-07T02:36:47;32.63;;;24.40;;
47113;SDS011;32867;51.556;6.832;2023-04-07T02:41:48;33.10;;;24.65;;
47113;SDS011;32867;51.556;6.832;2023-04-07T02:46:48;31.00;;;23.40;;
47113;SDS011;32867;51.556;6.832;2023-04-07T02:51:50;29.30;;;22.05;;
47113;SDS011;32867;51.556;6.832;2023-04-07T02:56:50;37.13;;;25.67;;
47113;SDS011;32867;51.556;6.832;2023-04-07T03:01:51;33.60;;;23.90;;
47113;SDS011;32867;51.556;6.832;2023-04-07T03:06:52;31.95;;;23.40;;
47113;SDS011;32867;51.556;6.832;2023-04-07T03:11:54;33.97;;;21.75;;
47113;SDS011;32867;51.556;6.832;2023-04-07T03:16:54;33.20;;;22.05;;
47113;SDS011;32867;51.556;6.832;2023-04-07T03:21:55;33.03;;;22.95;;
47113;SDS011;32867;51.556;6.832;2023-04-07T03:26:56;35.70;;;23.60;;
47113;SDS011;32867;51.556;6.832;2023-04-07T03:32:08;28.02;;;19.95;;
47113;SDS011;32867;51.556;6.832;2023-04-07T03:37:08;29.73;;;19.77;;
47113;SDS011;32867;51.556;6.832;2023-04-07T03:42:11;27.95;;;20.00;;
47113;SDS011;32867;51.556;6.832;2023-04-07T03:47:12;28.85;;;20.52;;
47113;SDS011;32867;51.556;6.832;2023-04-07T03:52:13;26.10;;;18.33;;
47113;SDS011;32867;51.556;6.832;2023-04-07T03:57:15;25.27;;;18.13;;
47113;SDS011;32867;51.556;6.832;2023-04-07T04:02:19;24.23;;;16.38;;
47113;SDS011;32867;51.556;6.832;2023-04-07T04:07:25;26.00;;;19.17;;
47113;SDS011;32867;51.556;6.832;2023-04-07T04:12:27;23.40;;;16.08;;
47113;SDS011;32867;51.556;6.832;2023-04-07T04:17:40;24.60;;;17.80;;
47113;SDS011;32867;51.556;6.832;2023-04-07T04:22:42;27.65;;;18.10;;
47113;SDS011;32867;51.556;6.832;2023-04-07T04:27:44;25.95;;;17.92;;
47113;SDS011;32867;51.556;6.832;2023-04-07T04:32:51;22.60;;;16.33;;
47113;SDS011;32867;51.556;6.832;2023-04-07T04:42:59;22.65;;;15.82;;
47113;SDS011;32867;51.556;6.832;2023-04-07T04:48:00;17.88;;;12.75;;
47113;SDS011;32867;51.556;6.832;2023-04-07T04:53:01;16.05;;;11.10;;
47113;SDS011;32867;51.556;6.832;2023-04-07T04:58:02;15.88;;;10.40;;
47113;SDS011;32867;51.556;6.832;2023-04-07T05:03:14;14.30;;;9.38;;
47113;SDS011;32867;51.556;6.832;2023-04-07T05:08:20;16.90;;;11.98;;
47113;SDS011;32867;51.556;6.832;2023-04-07T05:13:21;15.90;;;10.90;;
47113;SDS011;32867;51.556;6.832;2023-04-07T05:18:23;16.75;;;11.63;;
47113;SDS011;32867;51.556;6.832;2023-04-07T05:23:24;16.45;;;10.88;;
47113;SDS011;32867;51.556;6.832;2023-04-07T05:28:26;14.57;;;9.82;;
47113;SDS011;32867;51.556;6.832;2023-04-07T05:33:30;13.80;;;9.63;;
47113;SDS011;32867;51.556;6.832;2023-04-07T05:38:31;12.48;;;9.57;;
47113;SDS011;32867;51.556;6.832;2023-04-07T05:48:39;13.40;;;8.70;;
47113;SDS011;32867;51.556;6.832;2023-04-07T05:53:40;12.07;;;8.90;;
47113;SDS011;32867;51.556;6.832;2023-04-07T05:58:41;13.13;;;8.60;;
47113;SDS011;32867;51.556;6.832;2023-04-07T06:03:43;13.70;;;7.80;;
47113;SDS011;32867;51.556;6.832;2023-04-07T06:08:52;13.85;;;8.23;;
47113;SDS011;32867;51.556;6.832;2023-04-07T06:13:52;13.02;;;8.48;;
47113;SDS011;32867;51.556;6.832;2023-04-07T06:18:53;12.07;;;8.05;;
47113;SDS011;32867;51.556;6.832;2023-04-07T06:23:54;11.35;;;8.65;;
47113;SDS011;32867;51.556;6.832;2023-04-07T06:28:55;10.60;;;7.25;;
47113;SDS011;32867;51.556;6.832;2023-04-07T06:33:55;9.52;;;7.30;;
47113;SDS011;32867;51.556;6.832;2023-04-07T06:38:56;12.30;;;7.25;;
47113;SDS011;32867;51.556;6.832;2023-04-07T06:43:57;12.75;;;7.55;;
47113;SDS011;32867;51.556;6.832;2023-04-07T06:48:57;12.38;;;8.73;;
47113;SDS011;32867;51.556;6.832;2023-04-07T06:53:58;11.38;;;7.57;;
47113;SDS011;32867;51.556;6.832;2023-04-07T06:58:59;11.82;;;8.25;;
47113;SDS011;32867;51.556;6.832;2023-04-07T07:04:00;17.75;;;10.45;;
47113;SDS011;32867;51.556;6.832;2023-04-07T07:09:01;12.55;;;7.97;;
47113;SDS011;32867;51.556;6.832;2023-04-07T07:14:02;13.52;;;8.88;;
47113;SDS011;32867;51.556;6.832;2023-04-07T07:19:02;15.88;;;10.93;;
47113;SDS011;32867;51.556;6.832;2023-04-07T07:24:03;15.95;;;11.10;;
47113;SDS011;32867;51.556;6.832;2023-04-07T07:29:04;20.63;;;11.45;;
47113;SDS011;32867;51.556;6.832;2023-04-07T07:34:05;18.00;;;12.00;;
47113;SDS011;32867;51.556;6.832;2023-04-07T07:39:05;15.95;;;10.88;;
47113;SDS011;32867;51.556;6.832;2023-04-07T07:44:06;17.77;;;10.75;;
47113;SDS011;32867;51.556;6.832;2023-04-07T07:49:07;15.65;;;9.43;;
47113;SDS011;32867;51.556;6.832;2023-04-07T07:54:08;13.90;;;8.18;;
47113;SDS011;32867;51.556;6.832;2023-04-07T07:59:08;16.00;;;9.35;;
47113;SDS011;32867;51.556;6.832;2023-04-07T08:04:09;15.07;;;8.65;;
47113;SDS011;32867;51.556;6.832;2023-04-07T08:09:10;15.10;;;9.32;;
47113;SDS011;32867;51.556;6.832;2023-04-07T08:14:10;16.83;;;9.95;;
47113;SDS011;32867;51.556;6.832;2023-04-07T08:19:11;13.38;;;9.13;;
47113;SDS011;32867;51.556;6.832;2023-04-07T08:24:12;14.65;;;8.90;;
47113;SDS011;32867;51.556;6.832;2023-04-07T08:29:13;14.85;;;9.00;;
47113;SDS011;32867;51.556;6.832;2023-04-07T08:34:14;8.55;;;6.40;;
47113;SDS011;32867;51.556;6.832;2023-04-07T08:39:15;11.57;;;7.65;;
47113;SDS011;32867;51.556;6.832;2023-04-07T08:44:16;11.43;;;7.55;;
47113;SDS011;32867;51.556;6.832;2023-04-07T08:49:20;11.10;;;7.70;;
47113;SDS011;32867;51.556;6.832;2023-04-07T08:54:22;10.02;;;6.78;;
47113;SDS011;32867;51.556;6.832;2023-04-07T08:59:23;9.32;;;6.60;;
47113;SDS011;32867;51.556;6.832;2023-04-07T09:04:28;11.27;;;7.35;;
47113;SDS011;32867;51.556;6.832;2023-04-07T09:09:29;11.52;;;8.43;;
47113;SDS011;32867;51.556;6.832;2023-04-07T09:14:29;11.35;;;6.97;;
47113;SDS011;32867;51.556;6.832;2023-04-07T09:19:30;9.77;;;7.55;;
47113;SDS011;32867;51.556;6.832;2023-04-07T09:24:32;14.68;;;9.50;;
47113;SDS011;32867;51.556;6.832;2023-04-07T09:29:32;14.63;;;9.98;;
47113;SDS011;32867;51.556;6.832;2023-04-07T09:34:34;16.30;;;11.48;;
47113;SDS011;32867;51.556;6.832;2023-04-07T09:39:49;13.20;;;9.57;;
47113;SDS011;32867;51.556;6.832;2023-04-07T09:44:51;15.18;;;9.52;;
47113;SDS011;32867;51.556;6.832;2023-04-07T09:49:52;13.23;;;9.50;;
47113;SDS011;32867;51.556;6.832;2023-04-07T09:54:55;14.75;;;10.80;;
47113;SDS011;32867;51.556;6.832;2023-04-07T09:59:56;14.35;;;10.65;;
47113;SDS011;32867;51.556;6.832;2023-04-07T10:04:58;15.93;;;11.10;;
47113;SDS011;32867;51.556;6.832;2023-04-07T10:09:59;14.80;;;10.68;;
47113;SDS011;32867;51.556;6.832;2023-04-07T10:15:00;17.95;;;11.65;;
47113;SDS011;32867;51.556;6.832;2023-04-07T10:20:01;15.27;;;11.20;;
47113;SDS011;32867;51.556;6.832;2023-04-07T10:25:07;15.73;;;10.80;;
47113;SDS011;32867;51.556;6.832;2023-04-07T10:30:13;12.50;;;9.43;;
47113;SDS011;32867;51.556;6.832;2023-04-07T10:35:17;18.15;;;11.30;;
47113;SDS011;32867;51.556;6.832;2023-04-07T10:45:50;17.58;;;10.05;;
47113;SDS011;32867;51.556;6.832;2023-04-07T10:56:07;14.57;;;10.13;;
47113;SDS011;32867;51.556;6.832;2023-04-07T11:06:09;14.63;;;9.18;;
47113;SDS011;32867;51.556;6.832;2023-04-07T11:11:12;14.35;;;10.38;;
47113;SDS011;32867;51.556;6.832;2023-04-07T11:16:16;11.82;;;8.18;;
47113;SDS011;32867;51.556;6.832;2023-04-07T11:21:18;11.35;;;8.35;;
47113;SDS011;32867;51.556;6.832;2023-04-07T11:26:18;11.75;;;8.20;;
47113;SDS011;32867;51.556;6.832;2023-04-07T11:31:27;12.43;;;8.38;;
47113;SDS011;32867;51.556;6.832;2023-04-07T11:41:46;11.85;;;7.68;;
47113;SDS011;32867;51.556;6.832;2023-04-07T11:51:56;9.57;;;7.35;;
47113;SDS011;32867;51.556;6.832;2023-04-07T11:57:02;9.70;;;7.23;;
47113;SDS011;32867;51.556;6.832;2023-04-07T12:02:03;8.77;;;6.95;;
47113;SDS011;32867;51.556;6.832;2023-04-07T12:07:10;11.95;;;8.05;;
47113;SDS011;32867;51.556;6.832;2023-04-07T12:12:11;15.27;;;8.82;;
47113;SDS011;32867;51.556;6.832;2023-04-07T12:17:22;10.98;;;7.82;;
47113;SDS011;32867;51.556;6.832;2023-04-07T12:22:23;11.52;;;8.10;;
47113;SDS011;32867;51.556;6.832;2023-04-07T12:27:25;15.15;;;9.57;;
47113;SDS011;32867;51.556;6.832;2023-04-07T12:32:26;12.68;;;9.50;;
47113;SDS011;32867;51.556;6.832;2023-04-07T12:37:27;12.95;;;9.15;;
47113;SDS011;32867;51.556;6.832;2023-04-07T12:42:28;13.50;;;9.52;;
47113;SDS011;32867;51.556;6.832;2023-04-07T12:47:29;14.15;;;9.55;;
47113;SDS011;32867;51.556;6.832;2023-04-07T12:52:31;12.95;;;8.90;;
47113;SDS011;32867;51.556;6.832;2023-04-07T12:57:31;12.82;;;8.77;;
47113;SDS011;32867;51.556;6.832;2023-04-07T13:02:32;12.63;;;9.38;;
47113;SDS011;32867;51.556;6.832;2023-04-07T13:07:35;12.38;;;10.10;;
47113;SDS011;32867;51.556;6.832;2023-04-07T13:12:36;10.82;;;8.32;;
47113;SDS011;32867;51.556;6.832;2023-04-07T13:17:38;12.10;;;8.95;;
47113;SDS011;32867;51.556;6.832;2023-04-07T13:22:39;12.43;;;8.35;;
47113;SDS011;32867;51.556;6.832;2023-04-07T13:27:40;14.48;;;9.68;;
47113;SDS011;32867;51.556;6.832;2023-04-07T13:32:41;10.95;;;8.48;;
47113;SDS011;32867;51.556;6.832;2023-04-07T13:37:42;11.10;;;7.75;;
47113;SDS011;32867;51.556;6.832;2023-04-07T13:42:43;5.82;;;4.85;;
47113;SDS011;32867;51.556;6.832;2023-04-07T13:47:44;5.22;;;3.85;;
47113;SDS011;32867;51.556;6.832;2023-04-07T13:52:45;5.20;;;4.35;;
47113;SDS011;32867;51.556;6.832;2023-04-07T13:57:47;6.50;;;3.92;;
47113;SDS011;32867;51.556;6.832;2023-04-07T14:02:47;5.35;;;4.35;;
47113;SDS011;32867;51.556;6.832;2023-04-07T14:07:48;4.43;;;3.50;;
47113;SDS011;32867;51.556;6.832;2023-04-07T14:12:50;5.18;;;4.40;;
47113;SDS011;32867;51.556;6.832;2023-04-07T14:17:50;4.63;;;3.20;;
47113;SDS011;32867;51.556;6.832;2023-04-07T14:22:51;4.90;;;3.90;;
47113;SDS011;32867;51.556;6.832;2023-04-07T14:27:52;5.00;;;3.63;;
47113;SDS011;32867;51.556;6.832;2023-04-07T14:32:53;5.45;;;4.20;;
47113;SDS011;32867;51.556;6.832;2023-04-07T14:37:53;6.95;;;4.63;;
47113;SDS011;32867;51.556;6.832;2023-04-07T14:42:54;6.38;;;4.80;;
47113;SDS011;32867;51.556;6.832;2023-04-07T14:47:57;5.50;;;4.00;;
47113;SDS011;32867;51.556;6.832;2023-04-07T14:52:58;5.10;;;4.00;;
47113;SDS011;32867;51.556;6.832;2023-04-07T14:57:58;4.50;;;3.83;;
47113;SDS011;32867;51.556;6.832;2023-04-07T15:02:59;5.82;;;3.90;;
47113;SDS011;32867;51.556;6.832;2023-04-07T15:08:00;5.90;;;4.40;;
47113;SDS011;32867;51.556;6.832;2023-04-07T15:13:01;9.23;;;5.88;;
47113;SDS011;32867;51.556;6.832;2023-04-07T15:18:02;7.28;;;5.60;;
47113;SDS011;32867;51.556;6.832;2023-04-07T15:23:03;7.13;;;5.90;;
47113;SDS011;32867;51.556;6.832;2023-04-07T15:28:04;5.57;;;4.80;;
47113;SDS011;32867;51.556;6.832;2023-04-07T15:33:05;6.72;;;5.50;;
47113;SDS011;32867;51.556;6.832;2023-04-07T15:38:05;8.18;;;7.00;;
47113;SDS011;32867;51.556;6.832;2023-04-07T15:43:06;8.30;;;6.43;;
47113;SDS011;32867;51.556;6.832;2023-04-07T15:48:10;8.35;;;6.72;;
47113;SDS011;32867;51.556;6.832;2023-04-07T15:53:11;7.07;;;5.50;;
47113;SDS011;32867;51.556;6.832;2023-04-07T15:58:12;7.10;;;5.18;;
47113;SDS011;32867;51.556;6.832;2023-04-07T16:03:12;6.47;;;5.15;;
47113;SDS011;32867;51.556;6.832;2023-04-07T16:08:13;7.57;;;5.93;;
47113;SDS011;32867;51.556;6.832;2023-04-07T16:13:14;6.97;;;5.70;;
47113;SDS011;32867;51.556;6.832;2023-04-07T16:18:14;6.43;;;5.03;;
47113;SDS011;32867;51.556;6.832;2023-04-07T16:23:15;5.68;;;4.93;;
47113;SDS011;32867;51.556;6.832;2023-04-07T16:28:16;5.47;;;4.13;;
47113;SDS011;32867;51.556;6.832;2023-04-07T16:33:16;5.40;;;4.25;;
47113;SDS011;32867;51.556;6.832;2023-04-07T16:38:17;5.88;;;4.00;;
47113;SDS011;32867;51.556;6.832;2023-04-07T16:43:18;5.90;;;5.00;;
47113;SDS011;32867;51.556;6.832;2023-04-07T16:48:19;5.70;;;4.78;;
47113;SDS011;32867;51.556;6.832;2023-04-07T16:53:19;5.38;;;4.10;;
47113;SDS011;32867;51.556;6.832;2023-04-07T16:58:20;5.78;;;4.75;;
47113;SDS011;32867;51.556;6.832;2023-04-07T17:03:21;5.90;;;4.78;;
47113;SDS011;32867;51.556;6.832;2023-04-07T17:08:21;7.22;;;5.00;;
47113;SDS011;32867;51.556;6.832;2023-04-07T17:13:24;6.25;;;4.90;;
47113;SDS011;32867;51.556;6.832;2023-04-07T17:18:25;6.65;;;5.07;;
47113;SDS011;32867;51.556;6.832;2023-04-07T17:23:26;6.82;;;4.22;;
47113;SDS011;32867;51.556;6.832;2023-04-07T17:28:27;5.90;;;5.15;;
47113;SDS011;32867;51.556;6.832;2023-04-07T17:33:29;7.25;;;4.88;;
47113;SDS011;32867;51.556;6.832;2023-04-07T17:38:30;7.22;;;5.78;;
47113;SDS011;32867;51.556;6.832;2023-04-07T17:43:31;6.93;;;5.32;;
47113;SDS011;32867;51.556;6.832;2023-04-07T17:48:31;6.60;;;5.57;;
47113;SDS011;32867;51.556;6.832;2023-04-07T17:53:32;7.80;;;6.22;;
47113;SDS011;32867;51.556;6.832;2023-04-07T17:58:33;11.65;;;9.73;;
47113;SDS011;32867;51.556;6.832;2023-04-07T18:03:33;11.55;;;8.85;;
47113;SDS011;32867;51.556;6.832;2023-04-07T18:08:34;9.23;;;7.63;;
47113;SDS011;32867;51.556;6.832;2023-04-07T18:13:35;7.45;;;6.25;;
47113;SDS011;32867;51.556;6.832;2023-04-07T18:18:36;8.07;;;7.13;;
47113;SDS011;32867;51.556;6.832;2023-04-07T18:23:37;8.93;;;6.68;;
47113;SDS011;32867;51.556;6.832;2023-04-07T18:28:37;9.20;;;6.88;;
47113;SDS011;32867;51.556;6.832;2023-04-07T18:33:38;8.90;;;7.10;;
47113;SDS011;32867;51.556;6.832;2023-04-07T18:38:39;9.00;;;7.47;;
47113;SDS011;32867;51.556;6.832;2023-04-07T18:43:40;9.25;;;7.57;;
47113;SDS011;32867;51.556;6.832;2023-04-07T18:48:41;10.50;;;8.23;;
47113;SDS011;32867;51.556;6.832;2023-04-07T18:53:43;10.55;;;8.85;;
47113;SDS011;32867;51.556;6.832;2023-04-07T18:58:44;9.15;;;7.57;;
47113;SDS011;32867;51.556;6.832;2023-04-07T19:03:45;7.75;;;6.22;;
47113;SDS011;32867;51.556;6.832;2023-04-07T19:08:45;7.55;;;6.00;;
47113;SDS011;32867;51.556;6.832;2023-04-07T19:13:46;7.20;;;6.03;;
47113;SDS011;32867;51.556;6.832;2023-04-07T19:18:48;6.78;;;5.50;;
47113;SDS011;32867;51.556;6.832;2023-04-07T19:23:49;7.97;;;5.80;;
47113;SDS011;32867;51.556;6.832;2023-04-07T19:28:49;9.50;;;6.70;;
47113;SDS011;32867;51.556;6.832;2023-04-07T19:33:50;8.98;;;6.90;;
47113;SDS011;32867;51.556;6.832;2023-04-07T19:38:51;8.45;;;6.32;;
47113;SDS011;32867;51.556;6.832;2023-04-07T19:43:51;6.78;;;6.07;;
47113;SDS011;32867;51.556;6.832;2023-04-07T19:48:52;6.40;;;5.38;;
47113;SDS011;32867;51.556;6.832;2023-04-07T19:53:53;6.78;;;5.80;;
47113;SDS011;32867;51.556;6.832;2023-04-07T19:58:53;9.80;;;8.30;;
47113;SDS011;32867;51.556;6.832;2023-04-07T20:03:55;9.32;;;7.80;;
47113;SDS011;32867;51.556;6.832;2023-04-07T20:08:56;7.40;;;6.35;;
47113;SDS011;32867;51.556;6.832;2023-04-07T20:13:57;9.68;;;8.27;;
47113;SDS011;32867;51.556;6.832;2023-04-07T20:18:59;10.52;;;9.35;;
47113;SDS011;32867;51.556;6.832;2023-04-07T20:24:00;11.27;;;10.07;;
47113;SDS011;32867;51.556;6.832;2023-04-07T20:29:01;9.52;;;8.48;;
47113;SDS011;32867;51.556;6.832;2023-04-07T20:34:01;8.40;;;7.35;;
47113;SDS011;32867;51.556;6.832;2023-04-07T20:39:02;9.55;;;7.78;;
47113;SDS011;32867;51.556;6.832;2023-04-07T20:44:03;7.68;;;6.78;;
47113;SDS011;32867;51.556;6.832;2023-04-07T20:49:04;8.77;;;7.88;;
47113;SDS011;32867;51.556;6.832;2023-04-07T20:54:06;8.13;;;7.13;;
47113;SDS011;32867;51.556;6.832;2023-04-07T20:59:08;8.20;;;7.00;;
47113;SDS011;32867;51.556;6.832;2023-04-07T21:04:08;9.07;;;8.18;;
47113;SDS011;32867;51.556;6.832;2023-04-07T21:09:09;8.18;;;7.35;;
47113;SDS011;32867;51.556;6.832;2023-04-07T21:14:10;10.32;;;8.80;;
47113;SDS011;32867;51.556;6.832;2023-04-07T21:19:11;8.45;;;7.35;;
47113;SDS011;32867;51.556;6.832;2023-04-07T21:24:12;9.05;;;8.15;;
47113;SDS011;32867;51.556;6.832;2023-04-07T21:29:12;8.52;;;7.63;;
47113;SDS011;32867;51.556;6.832;2023-04-07T21:34:13;9.20;;;8.20;;
47113;SDS011;32867;51.556;6.832;2023-04-07T21:39:14;9.85;;;8.80;;
47113;SDS011;32867;51.556;6.832;2023-04-07T21:44:15;10.60;;;8.75;;
47113;SDS011;32867;51.556;6.832;2023-04-07T21:49:19;11.98;;;9.93;;
47113;SDS011;32867;51.556;6.832;2023-04-07T21:54:21;8.95;;;7.97;;
47113;SDS011;32867;51.556;6.832;2023-04-07T21:59:24;7.70;;;6.70;;
47113;SDS011;32867;51.556;6.832;2023-04-07T22:04:24;9.10;;;7.80;;
47113;SDS011;32867;51.556;6.832;2023-04-07T22:09:25;10.18;;;9.15;;
47113;SDS011;32867;51.556;6.832;2023-04-07T22:14:26;8.73;;;7.50;;
47113;SDS011;32867;51.556;6.832;2023-04-07T22:19:27;8.98;;;7.57;;
47113;SDS011;32867;51.556;6.832;2023-04-07T22:24:27;9.77;;;8.57;;
47113;SDS011;32867;51.556;6.832;2023-04-07T22:29:28;7.97;;;7.15;;
47113;SDS011;32867;51.556;6.832;2023-04-07T22:34:29;7.95;;;7.15;;
47113;SDS011;32867;51.556;6.832;2023-04-07T22:39:30;6.70;;;6.00;;
47113;SDS011;32867;51.556;6.832;2023-04-07T22:44:30;6.50;;;5.78;;
47113;SDS011;32867;51.556;6.832;2023-04-07T22:49:31;7.22;;;6.50;;
47113;SDS011;32867;51.556;6.832;2023-04-07T22:54:32;7.63;;;6.82;;
47113;SDS011;32867;51.556;6.832;2023-04-07T22:59:32;7.15;;;6.45;;
47113;SDS011;32867;51.556;6.832;2023-04-07T23:04:33;7.38;;;6.65;;
47113;SDS011;32867;51.556;6.832;2023-04-07T23:09:34;7.32;;;6.57;;
47113;SDS011;32867;51.556;6.832;2023-04-07T23:14:35;7.75;;;6.80;;
47113;SDS011;32867;51.556;6.832;2023-04-07T23:19:35;7.50;;;6.70;;
47113;SDS011;32867;51.556;6.832;2023-04-07T23:24:36;7.07;;;6.38;;
47113;SDS011;32867;51.556;6.832;2023-04-07T23:29:37;8.07;;;6.85;;
47113;SDS011;32867;51.556;6.832;2023-04-07T23:34:38;6.85;;;6.15;;
47113;SDS011;32867;51.556;6.832;2023-04-07T23:39:39;7.80;;;7.00;;
47113;SDS011;32867;51.556;6.832;2023-04-07T23:44:40;7.65;;;6.85;;
47113;SDS011;32867;51.556;6.832;2023-04-07T23:49:41;7.68;;;6.78;;
47113;SDS011;32867;51.556;6.832;2023-04-07T23:54:42;6.70;;;6.00;;
47113;SDS011;32867;51.556;6.832;2023-04-07T23:59:43;7.55;;;6.18;;
